Time;durP1;ratioP1;P1;durP2;ratioP2;P2;SDS_P1;SDS_P2;PMS_P1;PMS_P2;Temp;Humidity;BMP_temperature;BMP_pressure;BME280_temperature;BME280_humidity;BME280_pressure;Samples;Min_cycle;Max_cycle;Signal;HPM_P1;HPM_P2
2022/03/18 00:00:50;;;;;;;1.48;0.85;;;;;;;5.67;67.85;104031.88;5098909;27;98842;-36
2022/03/18 00:03:16;;;;;;;2.63;0.90;;;;;;;5.68;67.49;104041.78;5080094;27;101002;-36
2022/03/18 00:05:41;;;;;;;2.13;0.88;;;;;;;5.70;67.25;104045.38;5098924;27;96512;-36
2022/03/18 00:08:07;;;;;;;1.67;1.20;;;;;;;5.63;67.69;104043.50;5099469;27;96781;-36
2022/03/18 00:10:33;;;;;;;5.00;0.95;;;;;;;5.51;67.85;104034.41;5098229;27;122034;-36
2022/03/18 00:12:58;;;;;;;0.85;0.68;;;;;;;5.58;67.63;104054.22;5099114;27;96537;-36
2022/03/18 00:15:24;;;;;;;3.08;0.82;;;;;;;5.50;67.96;104035.28;5098665;27;96497;-35
2022/03/18 00:17:53;;;;;;;0.80;0.70;;;;;;;5.53;68.39;104045.19;5099002;27;96596;-36
2022/03/18 00:20:20;;;;;;;1.42;0.85;;;;;;;5.48;68.32;104037.06;5079913;27;100779;-36
2022/03/18 00:22:47;;;;;;;0.82;0.68;;;;;;;5.50;69.03;104046.03;5079988;27;100705;-35
2022/03/18 00:25:14;;;;;;;0.75;0.63;;;;;;;5.43;68.27;104040.56;5080347;27;96571;-36
2022/03/18 00:27:44;;;;;;;1.27;0.52;;;;;;;5.44;67.88;104039.72;5080344;27;96586;-36
2022/03/18 00:30:16;;;;;;;3.28;1.00;;;;;;;5.44;68.79;104040.59;5080382;27;99236;-36
2022/03/18 00:32:41;;;;;;;;;;;;;;;5.43;69.13;104035.19;5099176;27;99325;-35
2022/03/18 00:35:10;;;;;;;0.20;0.20;;;;;;;5.35;68.57;104031.53;5098955;27;96636;-36
2022/03/18 00:37:36;;;;;;;0.70;0.28;;;;;;;5.32;69.25;104030.63;5098611;27;96902;-36
2022/03/18 00:40:02;;;;;;;1.52;1.02;;;;;;;5.34;68.57;104027.97;5078853;27;100759;-36
2022/03/18 00:42:27;;;;;;;0.77;0.60;;;;;;;5.29;68.12;104026.97;5079609;27;101744;-36
2022/03/18 00:44:53;;;;;;;1.80;1.15;;;;;;;5.29;69.04;104032.34;5098138;27;106491;-36
2022/03/18 00:52:47;;;;;;;1.77;0.82;;;;;;;5.25;69.28;104035.91;5098634;27;97072;-36
2022/03/18 00:55:12;;;;;;;0.65;0.50;;;;;;;5.24;68.85;104028.72;5097607;27;113104;-35
2022/03/18 00:57:38;;;;;;;2.33;1.00;;;;;;;5.23;69.21;104032.28;5098796;27;96823;-35
2022/03/18 01:00:07;;;;;;;6.68;0.73;;;;;;;5.25;69.41;104052.03;5097720;27;99711;-36
2022/03/18 01:02:32;;;;;;;2.13;0.98;;;;;;;5.24;69.82;104058.28;5078418;27;100819;-36
2022/03/18 01:04:57;;;;;;;1.48;1.00;;;;;;;5.22;69.35;104060.97;5096765;27;96729;-35
2022/03/18 01:07:23;;;;;;;1.98;1.00;;;;;;;5.14;69.25;104051.88;5098250;27;100296;-35
2022/03/18 01:09:48;;;;;;;0.98;0.80;;;;;;;5.22;69.27;104054.66;5097809;27;99446;-36
2022/03/18 01:12:14;;;;;;;2.33;1.17;;;;;;;5.17;69.24;104059.06;5096813;27;121242;-36
2022/03/18 01:14:39;;;;;;;1.13;0.90;;;;;;;5.10;69.60;104052.72;5098297;27;96473;-35
2022/03/18 01:17:04;;;;;;;1.38;1.00;;;;;;;5.02;68.75;104046.34;5098109;27;96824;-36
2022/03/18 01:19:30;;;;;;;1.02;0.52;;;;;;;5.08;69.59;104065.25;5097679;27;97546;-36
2022/03/18 01:21:55;;;;;;;2.45;1.08;;;;;;;5.03;70.46;104062.50;5097528;27;114738;-36
2022/03/18 01:24:20;;;;;;;4.32;1.35;;;;;;;4.96;70.76;104060.59;5098073;27;96454;-36
2022/03/18 01:26:46;;;;;;;3.28;1.45;;;;;;;4.93;70.35;104060.53;5097737;27;96820;-35
2022/03/18 01:29:11;;;;;;;3.08;1.38;;;;;;;4.95;69.79;104055.22;5096680;27;122170;-36
2022/03/18 01:31:37;;;;;;;2.22;1.10;;;;;;;4.96;69.30;104060.59;5097578;27;97949;-35
2022/03/18 01:34:02;;;;;;;1.88;0.93;;;;;;;4.92;70.04;104058.75;5097731;27;96569;-36
2022/03/18 01:36:28;;;;;;;2.08;1.40;;;;;;;4.80;70.26;104047.84;5097894;27;96815;-36
2022/03/18 01:38:54;;;;;;;1.63;1.02;;;;;;;4.86;70.87;104061.34;5097472;27;97216;-36
2022/03/18 01:41:20;;;;;;;3.75;0.80;;;;;;;4.88;70.68;104073.91;5097352;27;97832;-36
2022/03/18 01:43:47;;;;;;;2.90;1.33;;;;;;;4.85;70.29;104075.66;5097675;27;96433;-36
2022/03/18 01:46:15;;;;;;;3.28;1.50;;;;;;;4.82;70.12;104072.94;5079366;27;97056;-36
2022/03/18 01:48:41;;;;;;;2.40;1.33;;;;;;;4.82;70.26;104062.19;5078310;27;100828;-36
2022/03/18 01:51:07;;;;;;;2.80;1.58;;;;;;;4.78;70.32;104066.59;5078670;27;100742;-36
2022/03/18 01:53:38;;;;;;;2.90;1.25;;;;;;;4.78;70.43;104071.09;5078388;27;96741;-36
2022/03/18 01:56:05;;;;;;;7.82;1.58;;;;;;;4.73;70.68;104064.75;5078975;27;97126;-36
2022/03/18 01:58:31;;;;;;;3.22;1.08;;;;;;;4.66;70.30;104067.31;5078430;27;101018;-36
2022/03/18 02:00:57;;;;;;;1.50;0.75;;;;;;;4.65;70.43;104067.31;5097170;27;97740;-36
2022/03/18 02:03:22;;;;;;;1.52;0.82;;;;;;;4.66;71.25;104070.00;5096862;27;96582;-36
2022/03/18 02:05:48;;;;;;;6.40;1.10;;;;;;;4.64;70.57;104071.75;5097215;27;96749;-36
2022/03/18 02:08:15;;;;;;;1.85;1.38;;;;;;;4.57;70.85;104069.88;5078266;27;101440;-36
2022/03/18 02:10:42;;;;;;;1.88;1.38;;;;;;;4.57;70.96;104075.25;5078403;27;104405;-36
2022/03/18 02:13:07;;;;;;;0.57;0.50;;;;;;;4.49;71.41;104060.81;5077290;27;96519;-36
2022/03/18 02:15:33;;;;;;;0.90;0.60;;;;;;;4.54;71.21;104080.56;5096602;27;99546;-36
2022/03/18 02:17:58;;;;;;;2.85;1.27;;;;;;;4.49;71.39;104074.22;5077616;27;98771;-36
2022/03/18 02:20:23;;;;;;;1.38;1.00;;;;;;;4.53;71.01;104075.16;5095781;27;126390;-36
2022/03/18 02:22:48;;;;;;;2.38;0.90;;;;;;;4.48;70.65;104061.66;5097243;27;96569;-35
2022/03/18 02:25:14;;;;;;;1.00;0.90;;;;;;;4.48;70.95;104061.66;5096652;27;105513;-36
2022/03/18 02:27:52;;;;;;;1.95;1.08;;;;;;;4.50;71.74;104065.28;5096459;27;99219;-36
2022/03/18 02:30:17;;;;;;;0.90;0.77;;;;;;;4.52;71.60;104076.94;5077879;27;100898;-36
2022/03/18 02:32:43;;;;;;;1.77;1.20;;;;;;;4.49;71.31;104074.22;5096814;27;96457;-35
2022/03/18 02:35:08;;;;;;;0.68;0.60;;;;;;;4.53;71.37;104089.50;5097442;27;96743;-36
2022/03/18 02:37:33;;;;;;;1.38;0.88;;;;;;;4.56;70.68;104083.28;5095287;27;129369;-36
2022/03/18 02:39:59;;;;;;;0.90;0.80;;;;;;;4.49;71.63;104081.38;5095208;27;126258;-36
2022/03/18 02:42:24;;;;;;;0.95;0.75;;;;;;;4.50;71.34;104080.50;5096386;27;96631;-36
2022/03/18 02:44:50;;;;;;;3.05;0.55;;;;;;;4.48;71.59;104083.13;5078022;27;96956;-35
2022/03/18 02:47:15;;;;;;;1.55;1.00;;;;;;;4.47;72.09;104092.97;5077745;27;99899;-36
2022/03/18 02:49:40;;;;;;;1.60;0.88;;;;;;;4.39;71.90;104083.03;5096312;27;98585;-36
2022/03/18 02:52:12;;;;;;;2.15;0.82;;;;;;;4.41;71.61;104092.91;5096208;27;104892;-36
2022/03/18 02:54:38;;;;;;;0.47;0.47;;;;;;;4.42;71.45;104089.31;5077920;27;96908;-36
2022/03/18 02:57:04;;;;;;;2.53;1.42;;;;;;;4.42;72.41;104097.38;5096233;27;97919;-36
2022/03/18 02:59:29;;;;;;;7.40;1.48;;;;;;;4.35;72.13;104097.25;5077830;27;100876;-35
2022/03/18 03:01:57;;;;;;;1.25;0.80;;;;;;;4.36;72.03;104102.66;5096369;27;96660;-36
2022/03/18 03:04:23;;;;;;;6.60;1.40;;;;;;;4.31;71.70;104098.97;5095767;27;96773;-36
2022/03/18 03:09:31;;;;;;;2.55;1.05;;;;;;;4.29;71.70;104118.59;5096376;27;96959;-35
2022/03/18 03:11:57;;;;;;;1.10;0.82;;;;;;;4.32;71.27;104124.94;5095277;27;114657;-36
2022/03/18 03:14:22;;;;;;;1.88;1.23;;;;;;;4.33;71.70;104126.72;5096577;27;96796;-36
2022/03/18 03:16:48;;;;;;;1.20;0.73;;;;;;;4.27;71.92;104121.28;5095351;27;127372;-35
2022/03/18 03:19:14;;;;;;;0.85;0.55;;;;;;;4.28;72.02;104135.59;5077219;27;101156;-36
2022/03/18 03:21:40;;;;;;;3.10;1.05;;;;;;;4.21;72.51;104121.16;5096162;27;96671;-35
2022/03/18 03:24:05;;;;;;;1.95;0.73;;;;;;;4.25;71.78;104141.81;5077424;27;96955;-35
2022/03/18 03:26:31;;;;;;;1.58;0.93;;;;;;;4.18;71.73;104129.16;5095578;27;98129;-36
2022/03/18 03:28:56;;;;;;;1.15;0.93;;;;;;;4.15;72.39;104124.63;5094893;27;126120;-36
2022/03/18 03:31:21;;;;;;;2.78;1.23;;;;;;;4.17;72.49;104140.75;5095691;27;96499;-36
2022/03/18 03:33:47;;;;;;;9.32;1.52;;;;;;;4.13;72.81;104145.16;5095349;27;107355;-36
2022/03/18 03:36:12;;;;;;;2.63;0.93;;;;;;;4.12;72.55;104140.66;5095542;27;104683;-36
2022/03/18 03:38:37;;;;;;;2.20;0.98;;;;;;;4.08;72.11;104133.44;5095941;27;97876;-36
2022/03/18 03:41:04;;;;;;;1.40;1.02;;;;;;;4.12;72.66;104139.75;5095180;27;108113;-36
2022/03/18 03:43:29;;;;;;;1.50;0.95;;;;;;;4.12;72.50;104148.72;5077397;27;96841;-36
2022/03/18 03:45:54;;;;;;;2.30;1.08;;;;;;;4.03;73.02;104127.09;5095342;27;108720;-35
2022/03/18 03:48:20;;;;;;;2.83;1.58;;;;;;;4.06;72.33;104145.03;5095144;27;126905;-36
2022/03/18 03:50:45;;;;;;;2.40;1.10;;;;;;;3.99;71.94;104134.16;5096089;27;96570;-35
2022/03/18 03:53:10;;;;;;;5.68;2.10;;;;;;;4.04;72.68;104139.63;5095844;27;96698;-36
2022/03/18 03:55:39;;;;;;;3.08;1.27;;;;;;;3.96;72.70;104125.19;5095104;27;97868;-36
2022/03/18 03:58:08;;;;;;;1.13;0.75;;;;;;;4.02;72.34;104139.59;5095375;27;99511;-36
2022/03/18 04:00:37;;;;;;;1.42;1.08;;;;;;;4.02;72.56;104144.06;5077071;27;97344;-36
2022/03/18 04:03:04;;;;;;;7.65;1.98;;;;;;;4.02;72.22;104150.31;5060523;27;96771;-35
2022/03/18 04:05:34;;;;;;;4.40;1.70;;;;;;;3.98;71.96;104144.84;5075853;27;100829;-36
2022/03/18 04:08:00;;;;;;;2.88;1.60;;;;;;;3.96;72.52;104138.59;5076655;27;100732;-36
2022/03/18 04:10:27;;;;;;;3.55;1.98;;;;;;;3.92;72.70;104148.34;5077168;27;96599;-35
2022/03/18 04:12:53;;;;;;;1.25;0.93;;;;;;;3.93;72.62;104152.84;5077296;27;97088;-36
2022/03/18 04:15:18;;;;;;;1.88;0.73;;;;;;;3.86;72.54;104139.25;5076594;27;98973;-35
2022/03/18 04:17:46;;;;;;;1.92;1.13;;;;;;;3.86;72.67;104144.63;5094850;27;99242;-36
2022/03/18 04:20:23;;;;;;;2.58;1.58;;;;;;;3.85;73.12;104146.41;5076214;27;96575;-36
2022/03/18 04:22:51;;;;;;;3.97;1.40;;;;;;;3.86;73.41;104155.34;5095401;27;96616;-35
2022/03/18 04:25:17;;;;;;;2.65;1.65;;;;;;;3.86;73.17;104155.34;5076511;27;100857;-36
2022/03/18 04:27:43;;;;;;;2.30;0.98;;;;;;;3.87;72.58;104157.19;5095127;27;97883;-36
2022/03/18 04:30:11;;;;;;;6.43;2.72;;;;;;;3.85;72.55;104164.28;5076866;27;97044;-35
2022/03/18 04:32:37;;;;;;;2.08;0.90;;;;;;;3.83;73.05;104161.56;5077071;27;96818;-36
2022/03/18 04:35:03;;;;;;;1.65;0.80;;;;;;;3.86;72.67;104176.81;5095112;27;98059;-36
2022/03/18 04:37:29;;;;;;;4.95;1.38;;;;;;;3.87;72.50;104176.84;5061448;27;101139;-36
2022/03/18 04:39:54;;;;;;;2.95;1.30;;;;;;;3.87;72.52;104186.69;5098502;27;96819;-36
2022/03/18 04:42:20;;;;;;;1.55;1.02;;;;;;;3.82;72.20;104175.84;5098818;27;96754;-36
2022/03/18 04:44:45;;;;;;;1.05;0.55;;;;;;;3.75;72.76;104156.06;5098033;27;97613;-35
2022/03/18 04:47:11;;;;;;;4.35;1.27;;;;;;;3.86;72.83;104180.38;5098514;27;97877;-35
2022/03/18 04:49:37;;;;;;;2.95;0.82;;;;;;;3.79;72.17;104179.38;5098595;27;96504;-36
2022/03/18 04:52:03;;;;;;;4.68;0.88;;;;;;;3.73;72.46;104173.88;5079786;27;96918;-36
2022/03/18 04:54:28;;;;;;;1.48;0.98;;;;;;;3.85;72.80;104197.34;5062507;27;102132;-36
2022/03/18 04:59:48;;;;;;;1.30;0.70;;;;;;;3.80;73.66;104186.53;5098630;27;96537;-36
2022/03/18 05:02:15;;;;;;;1.95;1.13;;;;;;;3.78;73.68;104184.69;5079941;27;96772;-36
2022/03/18 05:04:41;;;;;;;1.52;0.63;;;;;;;3.74;73.38;104175.69;5096859;27;98859;-36
2022/03/18 05:07:07;;;;;;;0.45;0.40;;;;;;;3.73;72.99;104179.25;5079319;27;101377;-35
2022/03/18 05:09:33;;;;;;;1.58;1.10;;;;;;;3.75;72.86;104190.91;5097545;27;96492;-36
2022/03/18 05:11:58;;;;;;;1.55;1.02;;;;;;;3.74;73.27;104189.09;5098338;27;96776;-36
2022/03/18 05:14:23;;;;;;;2.13;0.88;;;;;;;3.77;73.09;104199.88;5097008;27;122301;-36
2022/03/18 05:16:49;;;;;;;0.43;0.30;;;;;;;3.71;72.55;104180.97;5097666;27;104822;-36
2022/03/18 05:19:14;;;;;;;5.55;0.80;;;;;;;3.76;72.09;104197.16;5098044;27;96660;-36
2022/03/18 05:21:40;;;;;;;1.13;0.88;;;;;;;3.72;73.19;104203.31;5097876;27;96751;-36
2022/03/18 05:24:09;;;;;;;0.93;0.80;;;;;;;3.67;73.30;104200.56;5079160;27;100942;-36
2022/03/18 05:26:36;;;;;;;1.75;0.80;;;;;;;3.70;73.35;104215.81;5079394;27;101008;-36
2022/03/18 05:29:03;;;;;;;1.10;0.85;;;;;;;3.72;74.02;104232.81;5079405;27;96566;-36
2022/03/18 05:31:28;;;;;;;0.35;0.35;;;;;;;3.69;73.08;104222.94;5079186;27;96825;-36
2022/03/18 05:33:56;;;;;;;0.75;0.60;;;;;;;3.66;73.62;104233.59;5097160;27;97381;-36
2022/03/18 05:36:22;;;;;;;1.02;0.80;;;;;;;3.65;73.62;104222.81;5097478;27;97708;-36
2022/03/18 05:38:47;;;;;;;0.63;0.50;;;;;;;3.55;73.23;104211.94;5097809;27;96650;-36
2022/03/18 05:41:12;;;;;;;0.77;0.75;;;;;;;3.62;73.59;104242.44;5097491;27;96705;-36
2022/03/18 05:43:39;;;;;;;1.70;1.15;;;;;;;3.54;73.86;104236.00;5096716;27;116791;-35
2022/03/18 05:46:04;;;;;;;0.82;0.77;;;;;;;3.49;74.80;104235.00;5097358;27;97910;-36
2022/03/18 05:48:29;;;;;;;1.02;0.60;;;;;;;3.52;73.40;104253.81;5096401;27;112693;-36
2022/03/18 05:50:55;;;;;;;1.85;0.93;;;;;;;3.46;74.10;104259.97;5097808;27;96845;-36
2022/03/18 05:53:20;;;;;;;1.83;0.65;;;;;;;3.49;74.10;104276.09;5097060;27;98990;-36
2022/03/18 05:58:30;;;;;;;0.28;0.28;;;;;;;3.54;73.35;104281.56;5097275;27;96504;-36
2022/03/18 06:00:55;;;;;;;0.60;0.52;;;;;;;3.52;74.04;104283.31;5097358;27;96854;-35
2022/03/18 06:03:21;;;;;;;1.70;0.77;;;;;;;3.47;74.46;104274.25;5096932;27;97910;-36
2022/03/18 06:05:46;;;;;;;0.68;0.52;;;;;;;3.50;73.68;104279.69;5096521;27;97108;-36
2022/03/18 06:13:39;;;;;;;1.10;0.70;;;;;;;3.43;73.82;104262.53;5097336;27;97089;-35
2022/03/18 06:16:05;;;;;;;1.70;0.55;;;;;;;3.49;74.41;104277.88;5097264;27;98886;-35
2022/03/18 06:18:30;;;;;;;0.63;0.60;;;;;;;3.52;73.90;104285.97;5096994;27;96718;-35
2022/03/18 06:20:56;;;;;;;0.70;0.60;;;;;;;3.54;73.58;104286.94;5096172;27;116037;-36
2022/03/18 06:23:22;;;;;;;0.80;0.80;;;;;;;3.49;72.61;104285.91;5095259;27;125289;-35
2022/03/18 06:25:47;;;;;;;1.70;0.95;;;;;;;3.46;73.35;104278.72;5096521;27;97423;-35
2022/03/18 06:28:12;;;;;;;0.50;0.50;;;;;;;3.51;73.93;104286.88;5097064;27;96772;-36
2022/03/18 06:30:37;;;;;;;2.30;0.77;;;;;;;3.55;74.58;104295.03;5096684;27;103688;-35
2022/03/18 06:33:04;;;;;;;9.93;1.08;;;;;;;3.57;73.83;104297.72;5096454;27;105494;-36
2022/03/18 06:35:29;;;;;;;1.55;1.20;;;;;;;3.54;73.63;104290.50;5096525;27;99155;-36
2022/03/18 06:37:55;;;;;;;0.28;0.25;;;;;;;3.66;73.46;104310.44;5078193;27;96630;-36
2022/03/18 06:40:21;;;;;;;1.70;1.02;;;;;;;3.60;73.15;104298.72;5096648;27;96793;-36
2022/03/18 06:42:46;;;;;;;1.08;0.82;;;;;;;3.68;72.89;104317.63;5096210;27;99200;-36
2022/03/18 06:45:11;;;;;;;0.68;0.52;;;;;;;3.71;73.76;104314.13;5096875;27;97365;-36
2022/03/18 06:47:37;;;;;;;0.50;0.45;;;;;;;3.69;72.94;104308.72;5096515;27;96546;-36
2022/03/18 06:50:02;;;;;;;0.98;0.65;;;;;;;3.77;72.68;104316.97;5096389;27;96803;-36
2022/03/18 06:52:27;;;;;;;1.27;0.73;;;;;;;3.87;72.61;104323.44;5096461;27;98107;-36
2022/03/18 06:54:53;;;;;;;2.63;1.23;;;;;;;3.92;72.85;104322.66;5095770;27;111184;-36
2022/03/18 06:57:18;;;;;;;1.90;0.98;;;;;;;4.03;72.37;104333.63;5096758;27;96438;-36
2022/03/18 06:59:43;;;;;;;1.80;1.23;;;;;;;4.08;71.71;104320.34;5094720;27;116226;-35
2022/03/18 07:02:17;;;;;;;1.65;1.05;;;;;;;4.22;71.98;104325.13;5095079;27;126508;-36
2022/03/18 07:04:43;;;;;;;0.95;0.40;;;;;;;4.43;71.13;104323.72;5094932;27;126431;-36
2022/03/18 07:07:08;;;;;;;4.90;1.08;;;;;;;4.64;71.27;104331.31;5095802;27;111544;-36
2022/03/18 07:09:33;;;;;;;4.00;1.27;;;;;;;4.75;70.86;104326.16;5096413;27;97375;-36
2022/03/18 07:11:58;;;;;;;4.70;1.63;;;;;;;4.92;70.87;104319.31;5076292;27;124723;-35
2022/03/18 07:14:24;;;;;;;5.55;2.13;;;;;;;5.15;70.77;104330.47;5095688;27;103374;-36
2022/03/18 07:19:33;;;;;;;9.90;2.50;;;;;;;5.61;70.16;104341.97;5096562;27;96496;-36
2022/03/18 07:21:59;;;;;;;4.55;1.95;;;;;;;5.72;70.01;104331.38;5095542;27;98971;-35
2022/03/18 07:24:24;;;;;;;2.58;1.58;;;;;;;5.94;70.05;104330.84;5095232;27;124480;-36
2022/03/18 07:26:49;;;;;;;3.97;1.90;;;;;;;6.09;69.10;104331.94;5096110;27;96620;-36
2022/03/18 07:29:15;;;;;;;3.28;1.90;;;;;;;6.20;68.28;104330.31;5096399;27;96824;-36
2022/03/18 07:31:40;;;;;;;3.38;1.42;;;;;;;6.40;69.16;104335.03;5094749;27;126958;-36
2022/03/18 07:34:05;;;;;;;3.40;2.05;;;;;;;6.64;68.82;104346.09;5095843;27;97288;-36
2022/03/18 07:36:32;;;;;;;3.90;2.05;;;;;;;6.79;68.46;104343.56;5094626;27;114066;-36
2022/03/18 07:38:57;;;;;;;1.52;1.05;;;;;;;6.92;68.46;104343.69;5077249;27;96791;-36
2022/03/18 07:41:22;;;;;;;1.10;0.95;;;;;;;7.12;68.44;104358.25;5095394;27;97983;-36
2022/03/18 07:43:48;;;;;;;1.65;1.05;;;;;;;7.18;67.39;104349.34;5095727;27;97429;-36
2022/03/18 07:46:13;;;;;;;3.75;2.15;;;;;;;7.36;68.50;104346.78;5094903;27;117001;-36
2022/03/18 07:48:40;;;;;;;2.25;1.25;;;;;;;7.56;67.57;104363.16;5095717;27;96892;-35
2022/03/18 07:51:05;;;;;;;2.95;1.35;;;;;;;7.64;67.17;104356.00;5075610;27;100891;-36
2022/03/18 07:53:31;;;;;;;2.00;1.20;;;;;;;7.82;66.90;104359.75;5093318;27;122514;-35
2022/03/18 07:55:56;;;;;;;6.15;1.95;;;;;;;8.02;66.38;104363.44;5096027;27;96433;-35
2022/03/18 07:58:21;;;;;;;6.10;1.15;;;;;;;8.18;66.29;104377.94;5095672;27;96861;-36
2022/03/18 08:00:47;;;;;;;2.42;1.27;;;;;;;8.28;65.49;104368.09;5094586;27;98440;-36
2022/03/18 08:03:12;;;;;;;2.20;1.45;;;;;;;8.45;65.03;104379.00;5095427;27;97792;-35
2022/03/18 08:05:38;;;;;;;5.18;2.50;;;;;;;8.58;64.68;104389.00;5094269;27;106879;-35
2022/03/18 08:08:05;;;;;;;9.25;2.70;;;;;;;8.70;64.56;104389.03;5075918;27;96794;-36
2022/03/18 08:10:31;;;;;;;3.05;2.13;;;;;;;8.86;64.43;104405.28;5076129;27;100951;-36
2022/03/18 08:12:56;;;;;;;4.20;1.92;;;;;;;8.94;63.90;104398.13;5078406;27;97919;-36
2022/03/18 08:15:21;;;;;;;4.70;1.83;;;;;;;9.00;63.55;104402.63;5098407;27;97085;-35
2022/03/18 08:17:52;;;;;;;6.85;2.08;;;;;;;9.13;63.41;104413.47;5099372;27;96784;-35
2022/03/18 08:20:18;;;;;;;4.13;1.48;;;;;;;9.13;62.98;104404.47;5079879;27;99158;-35
2022/03/18 08:22:43;;;;;;;7.45;1.92;;;;;;;9.19;62.66;104409.88;5080052;27;100751;-35
2022/03/18 08:25:09;;;;;;;4.28;1.80;;;;;;;9.28;62.50;104427.94;5098629;27;96450;-36
2022/03/18 08:27:35;;;;;;;4.60;1.70;;;;;;;9.27;62.00;104432.44;5080187;27;96856;-35
2022/03/18 08:30:03;;;;;;;1.48;0.95;;;;;;;9.22;62.12;104420.69;5098385;27;98986;-35
2022/03/18 08:32:29;;;;;;;4.95;1.38;;;;;;;9.21;62.30;104421.59;5079819;27;101021;-35
2022/03/18 08:34:55;;;;;;;3.55;1.25;;;;;;;9.17;62.12;104421.59;5098651;27;96584;-36
2022/03/18 08:37:56;;;;;;;4.53;1.60;;;;;;;9.22;62.61;104439.63;5080201;27;96828;-35
2022/03/18 08:40:06;;;;;;;3.10;1.40;;;;;;;9.20;62.50;104430.63;5097708;27;98704;-35
2022/03/18 08:42:32;;;;;;;4.57;1.55;;;;;;;9.19;62.73;104434.22;5098409;27;100371;-35
2022/03/18 08:44:58;;;;;;;2.85;1.10;;;;;;;9.22;63.13;104441.44;5099037;27;96654;-35
2022/03/18 08:47:24;;;;;;;2.75;1.27;;;;;;;9.19;62.92;104436.91;5079677;27;96683;-35
2022/03/18 08:49:49;;;;;;;2.05;1.38;;;;;;;9.16;63.23;104430.63;5079196;27;100903;-36
2022/03/18 08:52:15;;;;;;;1.65;0.73;;;;;;;9.12;63.28;104432.38;5079475;27;99524;-36
2022/03/18 08:54:40;;;;;;;1.30;1.13;;;;;;;9.16;63.29;104438.72;5097673;27;96827;-36
2022/03/18 08:57:05;;;;;;;2.70;1.40;;;;;;;9.09;63.54;104438.69;5096096;27;96834;-36
2022/03/18 08:59:30;;;;;;;6.20;1.45;;;;;;;9.13;63.77;104445.03;5097324;27;125701;-35
2022/03/18 09:01:56;;;;;;;3.15;1.02;;;;;;;9.11;63.69;104436.91;5097635;27;99150;-36
2022/03/18 09:04:24;;;;;;;3.88;1.45;;;;;;;9.16;63.72;104431.50;5097462;27;116051;-35
2022/03/18 09:06:49;;;;;;;1.83;1.13;;;;;;;9.24;64.02;104447.75;5080065;27;96915;-35
2022/03/18 09:09:14;;;;;;;5.53;1.35;;;;;;;9.29;63.57;104445.94;5098200;27;97610;-35
2022/03/18 09:11:41;;;;;;;2.80;1.50;;;;;;;9.32;63.86;104454.09;5095933;27;127908;-35
2022/03/18 09:14:07;;;;;;;4.10;1.50;;;;;;;9.29;63.98;104443.25;5097309;27;96674;-36
2022/03/18 09:16:36;;;;;;;1.75;1.13;;;;;;;9.44;63.87;104464.00;5097753;27;97315;-35
2022/03/18 09:19:02;;;;;;;6.30;1.45;;;;;;;9.45;64.30;104468.53;5078894;27;99504;-36
2022/03/18 09:21:28;;;;;;;2.15;1.13;;;;;;;9.42;64.02;104445.06;5097346;27;97986;-36
2022/03/18 09:23:53;;;;;;;2.03;1.20;;;;;;;9.56;64.54;104464.03;5097010;27;96672;-35
2022/03/18 09:26:18;;;;;;;4.28;1.42;;;;;;;9.65;64.19;104466.72;5097861;27;96815;-35
2022/03/18 09:28:43;;;;;;;2.47;1.15;;;;;;;9.81;64.61;104474.88;5097803;27;97730;-35
2022/03/18 09:31:09;;;;;;;2.30;1.15;;;;;;;9.85;64.10;104461.34;5097162;27;111761;-35
2022/03/18 09:33:35;;;;;;;2.72;1.35;;;;;;;10.00;63.81;104461.31;5097836;27;96586;-35
2022/03/18 09:36:00;;;;;;;3.22;1.50;;;;;;;10.14;63.42;104466.72;5097934;27;96805;-35
2022/03/18 09:38:25;;;;;;;1.52;0.90;;;;;;;10.32;63.29;104464.91;5097177;27;98124;-35
2022/03/18 09:40:51;;;;;;;2.20;1.13;;;;;;;10.51;62.87;104469.41;5096305;27;114491;-36
2022/03/18 09:43:17;;;;;;;2.30;1.27;;;;;;;10.78;62.62;104476.53;5097610;27;96716;-35
2022/03/18 09:45:43;;;;;;;5.93;1.65;;;;;;;11.15;62.34;104491.72;5097760;27;97148;-35
2022/03/18 09:48:10;;;;;;;3.38;1.67;;;;;;;11.38;61.94;104489.78;5097215;27;99276;-36
2022/03/18 09:50:37;;;;;;;6.22;2.15;;;;;;;11.62;61.44;104480.56;5095752;27;100741;-35
2022/03/18 09:53:03;;;;;;;6.53;1.58;;;;;;;12.03;60.75;104489.31;5097586;27;97166;-36
2022/03/18 09:55:34;;;;;;;3.92;1.70;;;;;;;12.39;59.90;104503.47;5097916;27;96507;-35
2022/03/18 09:58:00;;;;;;;2.10;1.30;;;;;;;12.70;59.19;104496.78;5097138;27;99462;-36
2022/03/18 10:00:26;;;;;;;2.08;1.25;;;;;;;13.00;59.08;104502.75;5112833;27;100665;-36
2022/03/18 10:03:16;;;;;;;3.42;1.90;;;;;;;13.38;58.36;104509.53;5096672;27;96680;-35
2022/03/18 10:06:00;;;;;;;2.70;1.27;;;;;;;13.55;57.20;104509.28;5078372;27;96830;-36
2022/03/18 10:08:49;;;;;;;2.35;1.20;;;;;;;13.73;57.24;104499.91;5078269;27;100807;-36
2022/03/18 10:11:23;;;;;;;2.50;0.93;;;;;;;13.97;56.87;104498.63;5078854;27;97809;-35
2022/03/18 10:14:00;;;;;;;2.47;1.38;;;;;;;14.28;55.87;104507.16;5078566;27;96583;-35
2022/03/18 10:16:45;;;;;;;4.07;1.70;;;;;;;14.47;56.37;104504.03;5078626;27;96938;-35
2022/03/18 10:19:13;;;;;;;2.55;1.30;;;;;;;14.59;55.19;104507.47;5096842;27;97956;-36
2022/03/18 10:21:55;;;;;;;3.30;1.50;;;;;;;14.79;54.91;104507.06;5112876;27;101344;-35
2022/03/18 10:24:35;;;;;;;3.78;1.75;;;;;;;14.82;54.51;104507.00;5078488;27;96810;-36
2022/03/18 10:27:16;;;;;;;3.85;1.60;;;;;;;14.89;53.05;104501.41;5113009;27;96723;-35
2022/03/18 10:29:46;;;;;;;2.88;1.60;;;;;;;15.05;54.80;104508.34;5111685;27;100935;-36
2022/03/18 10:32:12;;;;;;;4.60;1.55;;;;;;;15.37;54.27;104509.47;5096775;27;97848;-36
2022/03/18 10:37:46;;;;;;;4.35;1.80;;;;;;;15.57;51.99;104498.97;5097402;27;96505;-35
2022/03/18 10:40:12;;;;;;;7.45;2.08;;;;;;;15.71;52.49;104505.03;5077725;27;100808;-35
2022/03/18 10:42:38;;;;;;;5.22;2.05;;;;;;;15.89;52.72;104511.84;5077668;27;100695;-35
2022/03/18 10:45:06;;;;;;;3.53;1.77;;;;;;;16.04;53.04;104507.84;5096884;27;96478;-36
2022/03/18 10:47:42;;;;;;;4.22;1.60;;;;;;;16.12;52.14;104494.88;5112928;27;96888;-35
2022/03/18 10:50:10;;;;;;;5.45;1.95;;;;;;;16.37;51.87;104520.66;5112257;27;100961;-35
2022/03/18 10:52:39;;;;;;;3.47;1.58;;;;;;;16.44;51.30;104514.06;5096431;27;97845;-36
2022/03/18 10:55:21;;;;;;;4.07;2.10;;;;;;;16.62;51.25;104523.63;5111890;27;96587;-36
2022/03/18 10:57:50;;;;;;;4.28;1.92;;;;;;;16.64;51.26;104508.06;5077927;27;96849;-35
2022/03/18 11:00:16;;;;;;;11.35;2.05;;;;;;;16.60;49.54;104514.56;5077457;27;100907;-35
2022/03/18 11:02:42;;;;;;;8.93;1.77;;;;;;;16.75;50.73;104516.84;5095961;27;97789;-35
2022/03/18 11:05:10;;;;;;;6.07;2.97;;;;;;;16.81;50.43;104513.09;5077208;27;96893;-35
2022/03/18 11:07:41;;;;;;;7.65;2.20;;;;;;;16.93;49.53;104520.94;5112333;27;96818;-35
2022/03/18 11:12:54;;;;;;;3.50;1.55;;;;;;;16.86;50.22;104517.47;5096610;27;97040;-35
2022/03/18 11:15:20;;;;;;;4.45;1.73;;;;;;;17.03;50.55;104524.28;5077577;27;96606;-35
2022/03/18 11:17:47;;;;;;;5.20;2.47;;;;;;;17.13;50.44;104512.09;5094777;27;96833;-36
2022/03/18 11:20:13;;;;;;;5.57;2.03;;;;;;;17.30;49.29;104523.44;5111374;27;101016;-35
2022/03/18 11:22:39;;;;;;;5.90;1.95;;;;;;;17.43;49.82;104521.22;5095571;27;98766;-35
2022/03/18 11:25:09;;;;;;;4.18;2.22;;;;;;;17.55;49.28;104514.44;5077578;27;96755;-35
2022/03/18 11:27:36;;;;;;;8.27;2.45;;;;;;;17.65;49.72;104521.41;5077943;27;96792;-35
2022/03/18 11:30:21;;;;;;;8.90;2.25;;;;;;;17.73;48.02;104510.19;5095715;27;98964;-35
2022/03/18 11:33:16;;;;;;;6.25;2.38;;;;;;;17.69;48.06;104516.75;5094395;27;101060;-35
2022/03/18 11:35:48;;;;;;;6.20;2.47;;;;;;;17.59;48.39;104521.59;5077634;27;96529;-35
2022/03/18 11:38:14;;;;;;;3.35;1.92;;;;;;;17.73;48.48;104507.44;5096046;27;96883;-36
2022/03/18 11:40:53;;;;;;;4.32;2.35;;;;;;;17.77;49.08;104520.09;5076667;27;100918;-36
2022/03/18 11:43:35;;;;;;;5.95;2.38;;;;;;;18.01;46.47;104512.94;5077098;27;101085;-36
2022/03/18 11:46:12;;;;;;;5.68;2.78;;;;;;;18.04;47.84;104519.22;5096635;27;96628;-36
2022/03/18 11:48:41;;;;;;;10.85;4.40;;;;;;;18.11;46.66;104519.00;5080760;27;96957;-36
2022/03/18 11:51:23;;;;;;;5.38;2.65;;;;;;;17.92;47.18;104519.63;5080504;27;101409;-36
2022/03/18 11:53:51;;;;;;;7.70;2.55;;;;;;;18.03;47.57;104506.44;5099214;27;97967;-36
2022/03/18 11:56:22;;;;;;;8.73;2.90;;;;;;;18.31;48.00;104512.81;5080971;27;96828;-36